00TA weather

Public forecast

Using degrees Fahrenheit for public forecast. Weather courtesy of forecast.io.

Closest aviation weather report (METAR) to SW Region FAA Heliport

Closest report is Fort Worth Meacham International Airport, 2.9 nm (5.3 km) W. Retrieved 2020/08/15 06:53 UTC (10 minutes ago):

KFTW 150653Z AUTO 14013KT 10SM CLR 30/ A2986 RMK AO2 SLP099 T0300

Closest aviation forecast (TAF) to SW Region FAA Heliport

Closest forecast is Fort Worth Meacham International Airport, 2.9 nm (5.3 km) W. Retrieved 2020/08/15 06:27 UTC (36 minutes ago):

TAF KFTW 150525Z 1506/1606 14009KT P6SM SCT300 FM151800 10009KT P6SM FEW300